Metar Cercanos

 

LEPA - Palma De Mallorc, Spain
Distance from station: ONO 38km
Actualización: Sun, 27-Nov-2022 4:00pm CET
Parcialmente nuboso
Parcialmente nuboso
 Viento del SSO
Viento: SSO 13 km/h
Temperatura: 17°C
Rocío: 11°C
Humedad: 68%
Barómetro: 1023 hPa
Clouds: Parcialmente nuboso
Visibility: 10 km
Cloud details: Parcialmente nuboso 975 m
2022/11/27 15:00 LEPA 271500Z 20007KT 170V230 9999 SCT032 17/11 Q1023 NOSIG
LEMH - Mahon/Menorca Is, Spain
Distance from station: ENE 105km
Actualización: Sun, 27-Nov-2022 4:00pm CET
Few Clouds
Few Clouds
 Viento del OSO
Viento: OSO 7 km/h
Temperatura: 16°C
Rocío: 9°C
Humedad: 63%
Barómetro: 1023 hPa
Clouds: Few Clouds
Visibility: 10 km
Cloud details: Few Clouds 610 m
2022/11/27 15:00 LEMH 271500Z 24004KT 210V280 9999 FEW020 16/09 Q1023
 
LEIB - Ibiza/Es Codola, Spain
Distance from station: OSO 165km
Actualización: Sun, 27-Nov-2022 4:00pm CET
Muy nuboso
Muy nuboso
 Viento del SSO
Viento: SSO 15 km/h
Temperatura: 17°C
Rocío: 11°C
Humedad: 68%
Barómetro: 1023 hPa
Clouds: Muy nuboso
Visibility: 10 km
Cloud details: Muy nuboso 823 m
2022/11/27 15:00 LEIB 271500Z 21008KT 170V240 9999 BKN027 17/11 Q1023 NOSIG
LEBL - Barcelona Airpor, Spain
Distance from station: NNO 225km
Actualización: Sun, 27-Nov-2022 4:00pm CET
Parcialmente nuboso
Parcialmente nuboso
 Viento del S
Viento: S 7 km/h
Temperatura: 15°C
Rocío: 9°C
Humedad: 68%
Barómetro: 1022 hPa
Clouds: Parcialmente nuboso
Visibility: 10 km
Cloud details: Parcialmente nuboso 762 m
2022/11/27 15:00 LEBL 271500Z 19004KT 9999 SCT025 15/09 Q1022 NOSIG
 
LEVC - Valencia (civ/Mi, Spain
Distance from station: NO 188km
Actualización: Sun, 27-Nov-2022 4:00pm CET
Despejado
Despejado
 Viento del SE
Viento: SE 9 km/h
Temperatura: 16°C
Rocío: 4°C
Humedad: 45%
Barómetro: 1022 hPa
Resumen: Despejado
Visibility: greater than 10 km
2022/11/27 15:00 LEVC 271500Z 13005KT 100V170 CAVOK 16/04 Q1022 NOSIG
LEGE - Gerona/Costa Bra, Spain
Distance from station: N 276km
Actualización: Sun, 27-Nov-2022 4:00pm CET
Despejado
Despejado
 Viento del S
Viento: S 20 km/h
Temperatura: 15°C
Rocío: 10°C
Humedad: 72%
Barómetro: 1021 hPa
Resumen: Despejado
Visibility: greater than 10 km
2022/11/27 15:00 LEGE 271500Z 19011KT CAVOK 15/10 Q1021
 
LEAL - Alicante/El Alte, Spain
Distance from station: OSO 344km
Actualización: Sun, 27-Nov-2022 4:00pm CET
Despejado
Despejado
 Viento del S
Viento: S 11 km/h
Temperatura: 18°C
Rocío: 12°C
Humedad: 68%
Barómetro: 1023 hPa
Resumen: Despejado
Visibility: greater than 10 km
2022/11/27 15:00 LEAL 271500Z 18006KT 140V210 CAVOK 18/12 Q1023 NOSIG
LEAM - Almeria Airport, Spain
Distance from station: SSO 56km
Actualización: Sun, 27-Nov-2022 4:00pm CET
Despejado
Despejado
 Viento del SO
Viento: SO 7 km/h
Temperatura: 18°C
Rocío: 11°C
Humedad: 64%
Barómetro: 1022 hPa
Resumen: Despejado
Visibility: greater than 10 km
2022/11/27 15:00 LEAM 271500Z 22004KT 170V270 CAVOK 18/11 Q1022
 
LEZG - Zaragoza (mil/Ci, Spain
Distance from station: NO 431km
Actualización: Sun, 27-Nov-2022 4:00pm CET
Despejado
Despejado
 Viento del E
Viento: E 13 km/h
Temperatura: 13°C
Rocío: 6°C
Humedad: 63%
Barómetro: 1021 hPa
Resumen: Despejado
Visibility: greater than 10 km
2022/11/27 15:00 LEZG 271500Z 08007KT CAVOK 13/06 Q1021
LEMD - Madrid/Barajas, Spain
Distance from station: ONO 234km
Actualización: Sun, 27-Nov-2022 4:00pm CET
Despejado
Despejado
 Viento del S
Viento: S 7 km/h
Temperatura: 14°C
Rocío: 4°C
Humedad: 51%
Barómetro: 1022 hPa
Resumen: Despejado
Visibility: greater than 10 km
2022/11/27 15:00 LEMD 271500Z 19004KT 120V210 CAVOK 14/04 Q1022 NOSIG
 
LEGR - Granada Airport, Spain
Distance from station: OSO 62km
Actualización: Sun, 27-Nov-2022 4:00pm CET
Despejado
Despejado
 Viento del varies
Viento: varies 4 km/h
Temperatura: 20°C
Rocío: -1°C
Humedad: 24%
Barómetro: 1023 hPa
Resumen: Despejado
Visibility: greater than 10 km
2022/11/27 15:00 LEGR 271500Z VRB02KT CAVOK 20/M01 Q1023
LEMG - Malaga (civ/Mil), Spain
Distance from station: OSO 227km
Actualización: Sun, 27-Nov-2022 4:00pm CET
Despejado
Despejado
 Viento del ESE
Viento: ESE 11 km/h
Temperatura: 17°C
Rocío: 11°C
Humedad: 68%
Barómetro: 1023 hPa
Resumen: Despejado
Visibility: greater than 10 km
2022/11/27 15:00 LEMG 271500Z 12006KT CAVOK 17/11 Q1023 NOSIG
 
LEZL - Sevilla (civ/Mil, Spain
Distance from station: S 318km
Actualización: Sun, 27-Nov-2022 4:00pm CET
Despejado
Despejado
 Viento del OSO
Viento: OSO 6 km/h
Temperatura: 22°C
Rocío: 6°C
Humedad: 36%
Barómetro: 1022 hPa
Resumen: Despejado
Visibility: greater than 10 km
2022/11/27 15:00 LEZL 271500Z 24003KT 170V290 CAVOK 22/06 Q1022 NOSIG
LEVT - Vitoria, Spain
Distance from station: NO 226km
Actualización: Sun, 27-Nov-2022 4:00pm CET
Despejado
Despejado
 Viento del OSO
Viento: OSO 19 km/h
Temperatura: 10°C
Sensación frio: 7°C
Rocío: 5°C
Humedad: 71%
Barómetro: 1020 hPa
Resumen: Despejado
Visibility: greater than 10 km
2022/11/27 15:00 LEVT 271500Z 24010KT CAVOK 10/05 Q1020
 
LEBB - Bilbao/Sondica, Spain
Distance from station: NNO 235km
Actualización: Sun, 27-Nov-2022 4:00pm CET
Despejado
Despejado
 Viento del SO
Viento: SO 6 km/h
Temperatura: 18°C
Rocío: 3°C
Humedad: 37%
Barómetro: 1018 hPa
Resumen: Despejado
Visibility: greater than 10 km
2022/11/27 15:00 LEBB 271500Z 22003KT 150V280 CAVOK 18/03 Q1018 NOSIG
LESO - San Sebastian/Fu, Spain
Distance from station: N 231km
Actualización: Sun, 27-Nov-2022 4:00pm CET
Despejado
Despejado
 Viento del S
Viento: S 9 km/h
Temperatura: 19°C
Rocío: 4°C
Humedad: 37%
Barómetro: 1018 hPa
Resumen: Despejado
Visibility: greater than 10 km
2022/11/27 15:00 LESO 271500Z 19005KT CAVOK 19/04 Q1018
 
LEVD - Valladolid(Mil/C, Spain
Distance from station: ONO 239km
Actualización: Sun, 27-Nov-2022 4:00pm CET
Muy nuboso
Muy nuboso
 Viento del O
Viento: O 20 km/h
Temperatura: 10°C
Sensación frio: 7°C
Rocío: 4°C
Humedad: 67%
Barómetro: 1022 hPa
Clouds: Muy nuboso
Visibility: 10 km
Cloud details: Parcialmente nuboso 701 m
Muy nuboso 1067 m
2022/11/27 15:00 LEVD 271500Z 27011KT 240V300 9999 SCT023 BKN035 10/04 Q1022
LESA - Salamanca (civ/M, Spain
Distance from station: ONO 349km
Actualización: Sun, 27-Nov-2022 4:00pm CET
Parcialmente nuboso
Parcialmente nuboso
 Viento del ONO
Viento: ONO 17 km/h
Temperatura: 14°C
Rocío: 5°C
Humedad: 55%
Barómetro: 1022 hPa
Clouds: Parcialmente nuboso
Visibility: 10 km
Cloud details: Parcialmente nuboso 1219 m
2022/11/27 15:00 LESA 271500Z 29009KT 9999 SCT040 14/05 Q1022
 
LEXJ - Santander/Paraya, Spain
Distance from station: NNO 247km
Actualización: Sun, 27-Nov-2022 4:00pm CET
Despejado
Despejado
 Viento del ONO
Viento: ONO 13 km/h
Temperatura: 17°C
Rocío: 10°C
Humedad: 64%
Barómetro: 1018 hPa
Resumen: Despejado
Visibility: greater than 10 km
2022/11/27 15:00 LEXJ 271500Z 29007KT 270V330 CAVOK 17/10 Q1018
LEAS - Asturias/Aviles, Spain
Distance from station: NO 214km
Actualización: Sun, 27-Nov-2022 4:00pm CET
Lluvia débil, Muy nuboso
Lluvia débil, Muy nuboso
 Viento del ONO
Viento: ONO 20 km/h
Temperatura: 13°C
Rocío: 12°C
Humedad: 94%
Barómetro: 1018 hPa
Resumen: Lluvia débil
Clouds: Muy nuboso
Visibility: 10 km
Cloud details: Few Clouds 1768 m
Parcialmente nuboso 2042 m
Muy nuboso 2438 m
2022/11/27 15:00 LEAS 271500Z 30011KT 260V330 9999 -RA FEW058 SCT067 BKN080 13/12 Q1018 NOSIG
 
LECO - La Coruna/Alvedr, Spain
Distance from station: ONO 222km
Actualización: Sun, 27-Nov-2022 4:00pm CET
Muy nuboso
Muy nuboso
 Viento del ONO
Viento: ONO 13 km/h
Temperatura: 13°C
Rocío: 11°C
Humedad: 88%
Barómetro: 1020 hPa
Clouds: Muy nuboso
Visibility: 10 km
Cloud details: Few Clouds 457 m
Parcialmente nuboso 1128 m
Muy nuboso 1280 m
2022/11/27 15:00 LECO 271500Z 29007KT 250V330 9999 FEW015 SCT037 BKN042 13/11 Q1020 TEMPO 3000 SHRA BKN010 SCT030TCU
LEVX - Vigo/Peinador, Spain
Distance from station: O 214km
Actualización: Sun, 27-Nov-2022 4:00pm CET
Patches of fog, Lluvia débil, Muy nuboso
Patches of fog, Lluvia débil, Muy nuboso
 Viento del varies
Viento: varies 4 km/h
Temperatura: 12°C
Rocío: 12°C
Humedad: 100%
Barómetro: 1021 hPa
Resumen: Patches of fog, Lluvia débil
Clouds: Muy nuboso
Visibility: 9 km
Cloud details: Parcialmente nuboso 274 m
Muy nuboso 396 m
Muy nuboso 610 m
2022/11/27 15:00 LEVX 271500Z VRB02KT 9000 BCFG -RA SCT009 BKN013 BKN020 12/12 Q1021 NOSIG